createdAt,value
2023-03-25T00:05:59.156Z,1.53
2023-03-25T00:08:49.633Z,1.60
2023-03-25T00:16:02.708Z,1.40
2023-03-25T00:18:44.435Z,1.10
2023-03-25T00:33:23.589Z,1.80
2023-03-25T00:36:22.471Z,1.80
2023-03-25T00:41:31.589Z,1.50
2023-03-25T00:44:07.924Z,2.00
2023-03-25T00:46:48.183Z,1.60
2023-03-25T00:49:15.726Z,1.60
2023-03-25T00:52:38.808Z,1.37
2023-03-25T00:55:31.354Z,1.53
2023-03-25T00:58:36.763Z,1.53
2023-03-25T01:01:37.158Z,1.60
2023-03-25T01:04:30.890Z,1.70
2023-03-25T01:08:17.710Z,1.40
2023-03-25T01:16:35.169Z,1.27
2023-03-25T01:19:25.225Z,1.40
2023-03-25T01:22:26.876Z,1.57
2023-03-25T01:28:56.919Z,1.30
2023-03-25T01:32:01.399Z,1.53
2023-03-25T01:41:18.720Z,1.70
2023-03-25T01:54:59.046Z,1.43
2023-03-25T02:08:51.948Z,1.40
2023-03-25T02:14:47.426Z,1.60
2023-03-25T02:18:00.738Z,1.40
2023-03-25T02:21:50.745Z,1.60
2023-03-25T02:29:09.619Z,1.60
2023-03-25T02:32:24.692Z,1.40
2023-03-25T02:36:14.568Z,1.40
2023-03-25T02:39:41.412Z,1.50
2023-03-25T02:44:14.375Z,1.53
2023-03-25T02:46:42.975Z,1.60
2023-03-25T02:49:50.824Z,1.27
2023-03-25T02:53:24.279Z,1.50
2023-03-25T02:56:31.309Z,1.63
2023-03-25T02:59:50.869Z,1.30
2023-03-25T03:02:53.120Z,1.60
2023-03-25T03:06:26.236Z,1.80
2023-03-25T03:09:44.803Z,1.57
2023-03-25T03:13:29.517Z,1.57
2023-03-25T03:17:25.921Z,1.60
2023-03-25T03:20:55.243Z,1.50
2023-03-25T03:24:11.747Z,1.60
2023-03-25T03:27:50.397Z,1.83
2023-03-25T03:30:57.211Z,1.83
2023-03-25T03:34:37.187Z,1.70
2023-03-25T03:38:14.293Z,2.00
2023-03-25T03:41:44.068Z,1.90
2023-03-25T03:45:04.153Z,1.60
2023-03-25T03:48:45.736Z,2.00
2023-03-25T03:55:44.473Z,1.90
2023-03-25T04:03:43.360Z,1.73
2023-03-25T04:07:08.747Z,1.60
2023-03-25T04:14:11.361Z,1.70
2023-03-25T04:17:42.561Z,1.50
2023-03-25T04:21:36.669Z,1.40
2023-03-25T04:27:51.223Z,1.80
2023-03-25T04:31:20.275Z,2.33
2023-03-25T04:33:48.717Z,1.57
2023-03-25T04:39:36.714Z,1.53
2023-03-25T04:42:26.249Z,1.30
2023-03-25T04:48:17.283Z,1.60
2023-03-25T04:50:44.433Z,1.63
2023-03-25T04:57:14.447Z,1.50
2023-03-25T04:59:44.568Z,1.40
2023-03-25T05:02:54.325Z,1.47
2023-03-25T05:05:38.605Z,1.50
2023-03-25T05:11:20.364Z,1.50
2023-03-25T05:13:56.804Z,1.50
2023-03-25T05:23:31.711Z,1.43
2023-03-25T05:29:37.571Z,1.30
2023-03-25T05:33:01.881Z,1.70
2023-03-25T05:36:24.700Z,1.60
2023-03-25T05:39:15.977Z,1.73
2023-03-25T05:48:13.267Z,1.60
2023-03-25T05:51:17.944Z,1.57
2023-03-25T05:54:18.835Z,1.80
2023-03-25T05:59:35.424Z,1.80
2023-03-25T06:05:42.504Z,1.57
2023-03-25T06:09:12.348Z,1.90
2023-03-25T06:18:40.841Z,1.77
2023-03-25T06:21:55.734Z,1.73
2023-03-25T06:25:06.532Z,1.67
2023-03-25T06:27:41.393Z,1.63
2023-03-25T06:31:21.398Z,1.97
2023-03-25T06:34:02.303Z,1.90
2023-03-25T06:36:31.699Z,1.87
2023-03-25T06:39:20.717Z,2.03
2023-03-25T06:42:09.279Z,2.00
2023-03-25T06:44:50.702Z,1.80
2023-03-25T06:47:25.495Z,2.23
2023-03-25T06:50:11.156Z,2.00
2023-03-25T06:53:03.183Z,2.07
2023-03-25T06:56:09.173Z,1.70
2023-03-25T06:59:05.567Z,2.20
2023-03-25T07:02:11.396Z,1.90
2023-03-25T07:04:43.361Z,1.97
2023-03-25T07:07:22.198Z,1.70
2023-03-25T07:10:05.017Z,1.70
2023-03-25T07:12:47.520Z,2.07
2023-03-25T07:15:32.248Z,1.53
2023-03-25T07:18:21.616Z,2.00
2023-03-25T07:21:00.564Z,1.87
2023-03-25T07:24:22.016Z,1.77
2023-03-25T07:26:54.410Z,1.80
2023-03-25T07:29:22.416Z,1.77
2023-03-25T07:31:49.834Z,2.10
2023-03-25T07:34:44.900Z,1.73
2023-03-25T07:37:39.989Z,1.87
2023-03-25T07:40:38.831Z,1.80
2023-03-25T07:43:12.818Z,2.03
2023-03-25T07:45:49.533Z,1.90
2023-03-25T07:48:29.872Z,2.13
2023-03-25T07:52:17.009Z,2.20
2023-03-25T07:54:54.546Z,2.03
2023-03-25T07:57:27.618Z,2.03
2023-03-25T08:00:01.512Z,2.17
2023-03-25T08:02:36.937Z,2.10
2023-03-25T08:05:06.003Z,2.40
2023-03-25T08:07:34.339Z,2.17
2023-03-25T08:10:03.096Z,2.27
2023-03-25T08:12:30.484Z,2.10
2023-03-25T08:15:01.748Z,2.63
2023-03-25T08:17:31.516Z,2.50
2023-03-25T08:20:06.429Z,2.00
2023-03-25T08:25:26.466Z,2.20
2023-03-25T08:28:08.720Z,1.80
2023-03-25T08:30:55.493Z,2.37
2023-03-25T08:33:36.607Z,1.90
2023-03-25T08:36:20.324Z,2.23
2023-03-25T08:39:13.257Z,2.30
2023-03-25T08:41:54.887Z,2.50
2023-03-25T08:44:23.337Z,2.77
2023-03-25T08:46:56.590Z,2.47
2023-03-25T08:49:24.362Z,2.30
2023-03-25T08:51:51.843Z,2.60
2023-03-25T08:54:30.131Z,2.40
2023-03-25T08:57:01.596Z,2.80
2023-03-25T08:59:35.322Z,2.47
2023-03-25T09:02:11.535Z,2.77
2023-03-25T09:04:46.628Z,2.40
2023-03-25T09:07:16.740Z,2.67
2023-03-25T09:09:55.237Z,2.60
2023-03-25T09:12:27.974Z,2.30
2023-03-25T09:15:02.299Z,2.80
2023-03-25T09:17:44.976Z,2.40
2023-03-25T09:20:19.258Z,2.60
2023-03-25T09:23:01.654Z,2.10
2023-03-25T09:25:37.402Z,2.27
2023-03-25T09:28:24.703Z,2.53
2023-03-25T09:31:34.652Z,2.17
2023-03-25T09:34:24.203Z,2.53
2023-03-25T09:37:24.310Z,2.27
2023-03-25T09:40:10.964Z,2.73
2023-03-25T09:43:38.992Z,2.27
2023-03-25T09:46:30.685Z,2.73
2023-03-25T09:49:07.299Z,2.40
2023-03-25T09:52:02.419Z,2.33
2023-03-25T09:54:37.524Z,2.10
2023-03-25T09:57:34.478Z,2.50
2023-03-25T10:00:45.763Z,2.30
2023-03-25T10:03:35.401Z,2.20
2023-03-25T10:06:25.411Z,2.27
2023-03-25T10:09:42.986Z,2.30
2023-03-25T10:12:46.341Z,2.10
2023-03-25T10:15:40.835Z,1.70
2023-03-25T10:18:30.102Z,2.13
2023-03-25T10:21:22.680Z,1.90
2023-03-25T10:24:49.898Z,1.90
2023-03-25T10:27:42.220Z,1.50
2023-03-25T10:30:26.682Z,1.90
2023-03-25T10:33:01.928Z,2.33
2023-03-25T10:35:40.624Z,1.80
2023-03-25T10:38:28.633Z,2.27
2023-03-25T10:41:42.624Z,2.43
2023-03-25T10:44:22.709Z,2.30
2023-03-25T10:47:16.106Z,2.23
2023-03-25T10:49:47.441Z,2.90
2023-03-25T10:52:16.657Z,2.20
2023-03-25T10:54:57.407Z,2.23
2023-03-25T10:57:32.290Z,2.80
2023-03-25T11:00:19.777Z,2.50
2023-03-25T11:02:49.545Z,2.53
2023-03-25T11:05:27.086Z,2.77
2023-03-25T11:08:18.496Z,2.50
2023-03-25T11:10:57.934Z,2.33
2023-03-25T11:13:30.092Z,2.77
2023-03-25T11:16:04.513Z,2.57
2023-03-25T11:18:44.020Z,2.57
2023-03-25T11:21:16.433Z,2.23
2023-03-25T11:23:53.371Z,2.57
2023-03-25T11:26:27.895Z,2.33
2023-03-25T11:29:19.107Z,2.40
2023-03-25T11:32:09.119Z,2.07
2023-03-25T11:34:42.599Z,1.90
2023-03-25T11:37:36.754Z,1.30
2023-03-25T11:40:20.533Z,1.50
2023-03-25T11:42:56.116Z,1.40
2023-03-25T11:45:45.699Z,1.57
2023-03-25T11:48:20.873Z,1.67
2023-03-25T11:50:59.945Z,2.00
2023-03-25T11:53:31.969Z,2.00
2023-03-25T11:56:12.070Z,2.20
2023-03-25T11:58:41.204Z,1.83
2023-03-25T12:01:44.810Z,2.43
2023-03-25T12:04:20.495Z,2.20
2023-03-25T12:07:22.567Z,2.20
2023-03-25T12:10:05.810Z,2.30
2023-03-25T12:12:59.696Z,2.27
2023-03-25T12:15:47.334Z,2.30
2023-03-25T12:18:29.596Z,1.87
2023-03-25T12:21:44.432Z,2.10
2023-03-25T12:24:45.041Z,2.10
2023-03-25T12:27:44.366Z,2.57
2023-03-25T12:30:28.406Z,2.40
2023-03-25T12:33:18.705Z,2.27
2023-03-25T12:36:28.672Z,2.70
2023-03-25T12:39:39.551Z,2.50
2023-03-25T12:42:55.534Z,2.63
2023-03-25T12:46:05.650Z,2.40
2023-03-25T12:49:30.820Z,2.30
2023-03-25T12:52:22.170Z,2.30
2023-03-25T12:55:20.430Z,2.40
2023-03-25T12:58:27.270Z,1.90
2023-03-25T13:01:10.326Z,2.17
2023-03-25T13:03:56.428Z,2.00
2023-03-25T13:06:45.833Z,2.00
2023-03-25T13:10:06.215Z,1.83
2023-03-25T13:13:04.178Z,2.17
2023-03-25T13:15:55.303Z,1.97
2023-03-25T13:18:44.803Z,2.10
2023-03-25T13:21:32.266Z,1.87
2023-03-25T13:24:50.038Z,2.10
2023-03-25T13:27:23.020Z,2.40
2023-03-25T13:29:59.277Z,1.90
2023-03-25T13:32:48.558Z,2.00
2023-03-25T13:35:35.644Z,1.90
2023-03-25T13:38:14.008Z,2.90
2023-03-25T13:40:51.649Z,1.90
2023-03-25T13:43:32.317Z,1.87
2023-03-25T13:46:10.967Z,1.67
2023-03-25T13:49:07.914Z,1.80
2023-03-25T13:54:28.159Z,1.60
2023-03-25T13:57:55.748Z,1.37
2023-03-25T14:01:15.663Z,1.30
2023-03-25T14:04:10.242Z,1.17
2023-03-25T14:07:41.351Z,1.40
2023-03-25T14:10:40.530Z,1.07
2023-03-25T14:14:46.926Z,1.00
2023-03-25T14:21:31.512Z,1.60
2023-03-25T14:27:35.337Z,1.43
2023-03-25T14:30:22.446Z,2.00
2023-03-25T14:33:04.429Z,2.00
2023-03-25T14:35:35.795Z,2.00
2023-03-25T14:38:09.438Z,2.27
2023-03-25T14:41:01.326Z,2.53
2023-03-25T14:43:53.241Z,3.03
2023-03-25T14:46:47.796Z,3.30
2023-03-25T14:49:34.205Z,3.10
2023-03-25T14:53:11.683Z,2.90
2023-03-25T14:55:48.547Z,2.37
2023-03-25T14:58:34.737Z,2.40
2023-03-25T15:01:46.824Z,2.50
2023-03-25T15:04:36.280Z,2.80
2023-03-25T15:07:14.307Z,2.87
2023-03-25T15:10:01.341Z,2.63
2023-03-25T15:12:36.786Z,2.90
2023-03-25T15:15:58.745Z,3.07
2023-03-25T15:22:14.123Z,3.00
2023-03-25T15:25:04.177Z,3.27
2023-03-25T15:27:58.584Z,2.67
2023-03-25T15:31:02.163Z,2.63
2023-03-25T15:34:05.566Z,3.30
2023-03-25T15:41:22.021Z,3.10
2023-03-25T15:44:21.785Z,3.40
2023-03-25T15:47:49.181Z,2.63
2023-03-25T15:50:53.653Z,3.10
2023-03-25T15:54:04.056Z,3.00
2023-03-25T15:56:49.978Z,3.63
2023-03-25T15:59:25.433Z,3.10
2023-03-25T16:01:54.053Z,3.00
2023-03-25T16:08:12.301Z,2.93
2023-03-25T16:10:57.877Z,3.10
2023-03-25T16:13:34.598Z,3.27
2023-03-25T16:21:25.555Z,3.00
2023-03-25T16:23:59.336Z,3.27
2023-03-25T16:26:53.308Z,2.60
2023-03-25T16:29:48.427Z,2.90
2023-03-25T16:33:01.883Z,3.33
2023-03-25T16:35:29.643Z,3.27
2023-03-25T16:37:58.736Z,3.13
2023-03-25T16:40:32.781Z,2.80
2023-03-25T16:43:30.686Z,3.03
2023-03-25T16:47:44.935Z,2.83
2023-03-25T16:51:16.999Z,2.10
2023-03-25T16:55:24.238Z,2.27
2023-03-25T17:01:07.457Z,2.40
2023-03-25T17:04:19.157Z,2.40
2023-03-25T17:07:36.576Z,2.40
2023-03-25T17:10:58.444Z,2.43
2023-03-25T17:13:52.251Z,1.83
2023-03-25T17:16:23.015Z,2.47
2023-03-25T17:18:55.751Z,3.03
2023-03-25T17:24:51.057Z,2.50
2023-03-25T17:27:27.450Z,2.13
2023-03-25T17:30:03.506Z,2.07
2023-03-25T17:32:45.681Z,2.33
2023-03-25T17:35:31.744Z,2.63
2023-03-25T17:38:00.042Z,2.43
2023-03-25T17:40:29.706Z,2.27
2023-03-25T17:42:58.282Z,2.27
2023-03-25T17:45:26.432Z,2.43
2023-03-25T17:47:53.845Z,2.53
2023-03-25T17:50:25.981Z,2.93
2023-03-25T17:52:54.160Z,2.43
2023-03-25T17:55:22.213Z,2.90
2023-03-25T17:57:50.520Z,2.80
2023-03-25T18:00:18.967Z,2.57
2023-03-25T18:02:49.319Z,2.20
2023-03-25T18:05:51.433Z,2.33
2023-03-25T18:08:23.396Z,2.63
2023-03-25T18:11:01.623Z,2.50
2023-03-25T18:13:59.435Z,2.43
2023-03-25T18:16:48.434Z,2.50
2023-03-25T18:19:25.880Z,2.63
2023-03-25T18:21:54.579Z,2.70
2023-03-25T18:24:51.159Z,2.77
2023-03-25T18:27:42.681Z,2.83
2023-03-25T18:30:40.713Z,3.10
2023-03-25T18:33:26.463Z,3.17
2023-03-25T18:35:56.651Z,2.70
2023-03-25T18:38:26.767Z,3.27
2023-03-25T18:41:01.109Z,2.73
2023-03-25T18:43:38.166Z,2.33
2023-03-25T18:46:05.830Z,2.60
2023-03-25T18:48:53.578Z,2.60
2023-03-25T18:51:21.698Z,2.43
2023-03-25T18:54:54.435Z,2.40
2023-03-25T18:57:53.424Z,3.70
2023-03-25T19:00:33.110Z,2.43
2023-03-25T19:03:00.865Z,2.93
2023-03-25T19:05:28.545Z,2.93
2023-03-25T19:08:37.332Z,2.90
2023-03-25T19:11:19.096Z,2.80
2023-03-25T19:13:48.472Z,2.87
2023-03-25T19:16:16.220Z,2.83
2023-03-25T19:18:43.935Z,2.77
2023-03-25T19:21:20.211Z,3.03
2023-03-25T19:23:48.354Z,2.87
2023-03-25T19:26:16.092Z,2.87
2023-03-25T19:28:43.451Z,3.50
2023-03-25T19:31:16.568Z,3.30
2023-03-25T19:33:44.281Z,3.83
2023-03-25T19:36:19.006Z,2.67
2023-03-25T19:38:46.697Z,3.40
2023-03-25T19:41:16.821Z,3.70
2023-03-25T19:43:44.667Z,3.33
2023-03-25T19:46:12.764Z,3.93
2023-03-25T19:48:40.226Z,3.30
2023-03-25T19:51:07.617Z,4.07
2023-03-25T19:53:35.153Z,4.03
2023-03-25T19:56:05.444Z,3.40
2023-03-25T19:58:34.987Z,3.57
2023-03-25T20:01:02.511Z,3.03
2023-03-25T20:03:47.909Z,3.47
2023-03-25T20:06:40.442Z,3.50
2023-03-25T20:12:37.000Z,3.50
2023-03-25T20:25:47.367Z,3.43
2023-03-25T20:28:14.734Z,3.43
2023-03-25T20:30:42.045Z,3.30
2023-03-25T20:33:09.606Z,3.20
2023-03-25T20:35:37.372Z,3.40
2023-03-25T20:38:05.053Z,3.73
2023-03-25T20:41:06.040Z,3.37
2023-03-25T20:44:01.544Z,3.90
2023-03-25T20:51:13.399Z,3.60
2023-03-25T21:05:12.637Z,3.63
2023-03-25T21:07:54.994Z,3.03
2023-03-25T21:10:22.595Z,3.70
2023-03-25T21:12:50.300Z,3.43
2023-03-25T21:15:18.349Z,3.27
2023-03-25T21:22:07.721Z,2.30
2023-03-25T21:24:36.225Z,2.40
2023-03-25T21:27:52.808Z,2.40
2023-03-25T21:50:36.772Z,3.40
2023-03-25T22:02:48.134Z,2.20
2023-03-25T22:14:09.954Z,2.10
2023-03-25T22:16:38.018Z,2.40
2023-03-25T22:19:07.014Z,2.37
2023-03-25T22:21:37.719Z,2.60
2023-03-25T22:24:49.427Z,2.30
2023-03-25T22:27:17.042Z,2.93
2023-03-25T22:29:44.848Z,2.80
2023-03-25T22:35:46.633Z,3.10
2023-03-25T22:38:26.287Z,2.73
2023-03-25T22:40:53.550Z,3.47
2023-03-25T22:43:21.746Z,3.33
2023-03-25T22:45:59.381Z,3.43
2023-03-25T22:48:30.404Z,3.63
2023-03-25T22:50:58.432Z,4.33
2023-03-25T22:53:27.799Z,4.20
2023-03-25T22:55:57.395Z,4.07
2023-03-25T22:58:55.961Z,3.97
2023-03-25T23:01:26.151Z,4.37
2023-03-25T23:05:12.149Z,4.33
2023-03-25T23:07:39.392Z,4.60
2023-03-25T23:10:14.052Z,4.27
2023-03-25T23:12:41.472Z,4.30
2023-03-25T23:15:09.540Z,4.47
2023-03-25T23:18:07.832Z,5.07
2023-03-25T23:20:54.678Z,4.03
2023-03-25T23:23:24.500Z,4.67
2023-03-25T23:26:28.776Z,4.33
2023-03-25T23:37:14.028Z,3.87
2023-03-25T23:39:42.368Z,4.87
2023-03-25T23:42:09.787Z,4.30
2023-03-25T23:44:37.482Z,4.80
2023-03-25T23:47:05.007Z,5.03
2023-03-25T23:49:34.249Z,4.63
2023-03-25T23:52:01.748Z,4.30
2023-03-25T23:54:29.365Z,4.73
2023-03-25T23:56:57.012Z,5.03
